createdAt,value
2023-05-09T00:00:42.636Z,7.23
2023-05-09T00:04:06.861Z,7.13
2023-05-09T00:07:31.496Z,6.80
2023-05-09T00:10:57.109Z,6.43
2023-05-09T00:14:20.690Z,7.60
2023-05-09T00:17:45.968Z,7.13
2023-05-09T00:21:09.931Z,6.80
2023-05-09T00:24:33.729Z,7.63
2023-05-09T00:27:59.096Z,7.17
2023-05-09T00:31:22.764Z,7.53
2023-05-09T00:34:46.815Z,7.63
2023-05-09T00:38:10.946Z,7.70
2023-05-09T00:41:34.814Z,7.70
2023-05-09T00:45:01.234Z,8.37
2023-05-09T00:48:24.822Z,9.13
2023-05-09T00:51:49.630Z,6.63
2023-05-09T00:55:15.974Z,8.80
2023-05-09T00:58:40.821Z,8.90
2023-05-09T01:02:06.173Z,7.47
2023-05-09T01:05:43.276Z,7.87
2023-05-09T01:09:18.878Z,6.80
2023-05-09T01:12:48.592Z,7.10
2023-05-09T01:16:21.863Z,6.40
2023-05-09T01:20:01.448Z,6.50
2023-05-09T01:24:08.331Z,7.43
2023-05-09T01:27:44.499Z,9.20
2023-05-09T01:31:10.824Z,8.13
2023-05-09T01:34:36.028Z,9.50
2023-05-09T01:38:00.729Z,8.00
2023-05-09T01:41:26.801Z,9.07
2023-05-09T01:44:51.989Z,8.10
2023-05-09T01:48:17.801Z,8.37
2023-05-09T01:51:43.928Z,7.83
2023-05-09T01:55:11.383Z,8.30
2023-05-09T01:58:38.226Z,8.80
2023-05-09T02:02:02.664Z,7.50
2023-05-09T02:05:34.500Z,8.20
2023-05-09T02:08:58.818Z,8.00
2023-05-09T02:12:23.749Z,8.30
2023-05-09T02:15:48.728Z,8.10
2023-05-09T02:19:13.936Z,7.80
2023-05-09T02:22:41.955Z,8.93
2023-05-09T02:26:06.273Z,8.87
2023-05-09T02:29:41.477Z,8.00
2023-05-09T02:33:09.566Z,7.27
2023-05-09T02:36:34.604Z,7.97
2023-05-09T02:40:00.357Z,8.37
2023-05-09T02:43:24.958Z,8.03
2023-05-09T02:46:48.971Z,8.83
2023-05-09T02:50:13.376Z,8.20
2023-05-09T02:53:37.900Z,7.60
2023-05-09T02:57:03.348Z,7.50
2023-05-09T03:00:27.170Z,7.73
2023-05-09T03:03:51.054Z,7.30
2023-05-09T03:07:18.779Z,9.10
2023-05-09T03:10:42.978Z,8.20
2023-05-09T03:14:10.671Z,7.80
2023-05-09T03:17:35.414Z,9.50
2023-05-09T03:20:59.959Z,8.77
2023-05-09T03:24:26.490Z,8.60
2023-05-09T03:27:50.995Z,8.80
2023-05-09T03:31:17.438Z,8.50
2023-05-09T03:34:42.007Z,8.90
2023-05-09T03:38:06.148Z,9.83
2023-05-09T03:41:30.464Z,7.90
2023-05-09T03:44:55.050Z,7.80
2023-05-09T03:48:20.529Z,9.03
2023-05-09T03:51:48.050Z,8.30
2023-05-09T03:55:14.151Z,8.80
2023-05-09T03:58:37.995Z,8.57
2023-05-09T04:02:03.122Z,7.63
2023-05-09T04:05:29.389Z,8.23
2023-05-09T04:08:53.294Z,7.90
2023-05-09T04:12:17.059Z,8.20
2023-05-09T04:15:41.988Z,7.67
2023-05-09T04:19:07.104Z,7.63
2023-05-09T04:22:33.716Z,8.63
2023-05-09T04:25:58.043Z,7.77
2023-05-09T04:29:23.051Z,7.10
2023-05-09T04:32:51.171Z,7.70
2023-05-09T04:36:15.066Z,7.33
2023-05-09T04:39:43.891Z,7.70
2023-05-09T04:43:23.117Z,6.73
2023-05-09T04:46:48.158Z,6.67
2023-05-09T04:50:13.035Z,7.00
2023-05-09T04:53:37.192Z,7.43
2023-05-09T04:57:16.587Z,6.87
2023-05-09T05:00:44.810Z,5.90
2023-05-09T05:04:09.135Z,6.10
2023-05-09T05:07:33.151Z,6.87
2023-05-09T05:10:57.531Z,7.63
2023-05-09T05:14:23.118Z,7.33
2023-05-09T05:17:47.082Z,6.30
2023-05-09T05:21:13.439Z,5.90
2023-05-09T05:24:37.237Z,6.30
2023-05-09T05:28:00.888Z,6.30
2023-05-09T05:31:26.219Z,7.70
2023-05-09T05:34:50.284Z,11.10
2023-05-09T05:38:13.960Z,7.57
2023-05-09T05:41:38.932Z,5.87
2023-05-09T05:45:05.304Z,6.30
2023-05-09T05:48:33.468Z,5.87
2023-05-09T05:51:58.163Z,6.73
2023-05-09T05:55:23.057Z,6.57
2023-05-09T05:58:46.749Z,7.53
2023-05-09T06:02:10.462Z,7.47
2023-05-09T06:05:35.714Z,6.97
2023-05-09T06:08:59.552Z,8.27
2023-05-09T06:12:23.102Z,9.03
2023-05-09T06:15:46.794Z,12.23
2023-05-09T06:19:10.643Z,12.93
2023-05-09T06:22:35.776Z,10.90
2023-05-09T06:25:59.768Z,10.67
2023-05-09T06:29:24.673Z,11.33
2023-05-09T06:32:48.431Z,11.70
2023-05-09T06:36:12.154Z,10.93
2023-05-09T06:39:37.124Z,10.63
2023-05-09T06:43:00.816Z,12.50
2023-05-09T06:46:24.606Z,10.87
2023-05-09T06:49:48.528Z,12.30
2023-05-09T06:53:12.143Z,11.33
2023-05-09T06:56:37.717Z,12.40
2023-05-09T07:00:01.496Z,10.33
2023-05-09T07:03:27.226Z,10.40
2023-05-09T07:06:50.914Z,11.30
2023-05-09T07:10:14.557Z,12.63
2023-05-09T07:13:39.510Z,11.00
2023-05-09T07:17:21.157Z,10.53
2023-05-09T07:20:46.515Z,9.40
2023-05-09T07:24:10.272Z,11.77
2023-05-09T07:27:33.888Z,13.17
2023-05-09T07:30:59.422Z,10.20
2023-05-09T07:34:25.351Z,13.27
2023-05-09T07:37:48.949Z,12.63
2023-05-09T07:41:12.632Z,13.70
2023-05-09T07:44:36.350Z,13.30
2023-05-09T07:48:01.498Z,11.90
2023-05-09T07:51:25.115Z,11.77
2023-05-09T07:54:48.714Z,12.37
2023-05-09T07:58:12.361Z,10.57
2023-05-09T08:01:36.043Z,12.07
2023-05-09T08:05:00.975Z,12.10
2023-05-09T08:08:24.735Z,13.10
2023-05-09T08:11:48.364Z,13.97
2023-05-09T08:15:12.759Z,12.90
2023-05-09T08:18:36.506Z,12.00
2023-05-09T08:22:01.530Z,11.80
2023-05-09T08:25:25.134Z,12.43
2023-05-09T08:28:49.212Z,14.13
2023-05-09T08:32:12.844Z,11.50
2023-05-09T08:35:36.703Z,12.70
2023-05-09T08:39:02.197Z,11.93
2023-05-09T08:42:26.896Z,12.40
2023-05-09T08:45:53.287Z,12.90
2023-05-09T08:49:17.856Z,13.10
2023-05-09T08:52:41.965Z,13.00
2023-05-09T08:56:08.063Z,11.23
2023-05-09T08:59:36.710Z,11.87
2023-05-09T09:03:03.873Z,12.47
2023-05-09T09:06:29.794Z,12.53
2023-05-09T09:09:54.929Z,12.77
2023-05-09T09:13:21.833Z,13.00
2023-05-09T09:16:49.622Z,11.93
2023-05-09T09:20:15.515Z,11.43
2023-05-09T09:23:42.935Z,11.73
2023-05-09T09:27:07.661Z,11.30
2023-05-09T09:30:32.830Z,10.30
2023-05-09T09:34:01.229Z,12.40
2023-05-09T09:37:25.806Z,11.07
2023-05-09T09:40:56.674Z,10.43
2023-05-09T09:44:21.508Z,10.83
2023-05-09T09:47:48.621Z,11.20
2023-05-09T09:51:12.869Z,12.57
2023-05-09T09:54:36.579Z,11.10
2023-05-09T09:58:00.187Z,11.30
2023-05-09T10:01:24.605Z,11.60
2023-05-09T10:04:49.600Z,11.53
2023-05-09T10:08:13.131Z,11.67
2023-05-09T10:11:36.924Z,12.93
2023-05-09T10:15:00.929Z,11.73
2023-05-09T10:18:27.999Z,12.10
2023-05-09T10:21:55.409Z,13.07
2023-05-09T10:25:22.123Z,12.03
2023-05-09T10:28:48.946Z,12.50
2023-05-09T10:32:20.558Z,12.90
2023-05-09T10:35:47.808Z,13.30
2023-05-09T10:39:13.160Z,12.23
2023-05-09T10:42:37.297Z,12.93
2023-05-09T10:46:01.883Z,11.23
2023-05-09T10:49:25.570Z,12.03
2023-05-09T10:53:08.857Z,10.83
2023-05-09T10:56:35.923Z,13.63
2023-05-09T11:00:01.322Z,13.43
2023-05-09T11:03:26.405Z,12.37
2023-05-09T11:06:51.825Z,10.93
2023-05-09T11:10:18.698Z,12.10
2023-05-09T11:13:47.476Z,9.33
2023-05-09T11:17:13.269Z,11.30
2023-05-09T11:20:43.359Z,12.50
2023-05-09T11:24:18.149Z,11.30
2023-05-09T11:27:44.512Z,9.80
2023-05-09T11:31:14.784Z,10.40
2023-05-09T11:34:38.614Z,11.50
2023-05-09T11:38:04.357Z,11.13
2023-05-09T11:41:28.731Z,10.93
2023-05-09T11:44:52.770Z,8.37
2023-05-09T11:48:24.086Z,10.00
2023-05-09T11:51:48.020Z,10.37
2023-05-09T11:55:13.263Z,10.27
2023-05-09T11:58:40.239Z,9.73
2023-05-09T12:02:05.459Z,9.63
2023-05-09T12:05:30.850Z,8.80
2023-05-09T12:08:56.755Z,8.93
2023-05-09T12:12:21.649Z,8.30
2023-05-09T12:15:45.436Z,8.43
2023-05-09T12:19:11.976Z,7.53
2023-05-09T12:22:38.363Z,6.53
2023-05-09T12:26:02.101Z,6.73
2023-05-09T12:29:26.448Z,8.37
2023-05-09T12:32:50.222Z,7.90
2023-05-09T12:36:16.054Z,7.13
2023-05-09T12:39:41.647Z,8.10
2023-05-09T12:43:05.661Z,8.03
2023-05-09T12:46:29.798Z,7.33
2023-05-09T12:49:53.596Z,6.83
2023-05-09T12:53:25.591Z,8.13
2023-05-09T12:56:52.556Z,8.23
2023-05-09T13:00:19.557Z,8.60
2023-05-09T13:03:44.901Z,9.03
2023-05-09T13:07:11.337Z,7.90
2023-05-09T13:10:35.211Z,7.73
2023-05-09T13:14:02.237Z,8.20
2023-05-09T13:17:25.999Z,8.53
2023-05-09T13:20:49.726Z,8.63
2023-05-09T13:24:13.306Z,8.13
2023-05-09T13:27:37.283Z,8.10
2023-05-09T13:31:02.978Z,8.40
2023-05-09T13:34:26.586Z,8.90
2023-05-09T13:37:50.880Z,9.23
2023-05-09T13:41:19.825Z,8.60
2023-05-09T13:44:43.442Z,8.17
2023-05-09T13:48:08.949Z,7.90
2023-05-09T13:51:32.811Z,9.00
2023-05-09T13:54:56.461Z,8.13
2023-05-09T13:58:20.192Z,7.80
2023-05-09T14:01:44.057Z,8.00
2023-05-09T14:05:09.938Z,7.73
2023-05-09T14:08:33.518Z,8.13
2023-05-09T14:11:57.633Z,7.97
2023-05-09T14:15:21.275Z,8.20
2023-05-09T14:18:44.850Z,8.20
2023-05-09T14:22:09.784Z,7.30
2023-05-09T14:25:33.323Z,7.47
2023-05-09T14:28:57.318Z,9.10
2023-05-09T14:32:20.987Z,8.10
2023-05-09T14:35:44.606Z,7.77
2023-05-09T14:39:09.661Z,8.80
2023-05-09T14:42:33.728Z,7.37
2023-05-09T14:45:57.355Z,7.87
2023-05-09T14:49:20.989Z,7.90
2023-05-09T14:52:44.813Z,7.50
2023-05-09T14:56:11.280Z,8.20
2023-05-09T14:59:36.983Z,9.30
2023-05-09T15:03:00.879Z,9.47
2023-05-09T15:06:24.453Z,9.23
2023-05-09T15:09:48.072Z,7.80
2023-05-09T15:13:13.218Z,7.00
2023-05-09T15:16:36.958Z,6.70
2023-05-09T15:20:00.646Z,7.20
2023-05-09T15:23:24.249Z,6.67
2023-05-09T15:26:48.009Z,8.53
2023-05-09T15:30:14.404Z,6.57
2023-05-09T15:33:38.460Z,6.83
2023-05-09T15:37:02.069Z,7.57
2023-05-09T15:40:26.379Z,7.87
2023-05-09T15:43:50.682Z,7.80
2023-05-09T15:47:15.642Z,8.27
2023-05-09T15:50:39.288Z,7.90
2023-05-09T15:54:02.871Z,8.83
2023-05-09T15:57:26.769Z,7.80
2023-05-09T16:00:50.772Z,7.70
2023-05-09T16:04:15.735Z,7.70
2023-05-09T16:07:39.424Z,7.90
2023-05-09T16:11:09.224Z,7.70
2023-05-09T16:14:32.890Z,8.13
2023-05-09T16:17:56.482Z,9.13
2023-05-09T16:21:21.592Z,8.57
2023-05-09T16:24:45.436Z,9.10
2023-05-09T16:28:09.028Z,9.63
2023-05-09T16:31:35.382Z,9.27
2023-05-09T16:34:59.440Z,9.80
2023-05-09T16:38:24.348Z,8.90
2023-05-09T16:41:47.945Z,9.37
2023-05-09T16:45:12.012Z,8.90
2023-05-09T16:48:35.685Z,8.50
2023-05-09T16:51:59.413Z,9.10
2023-05-09T16:55:24.364Z,9.37
2023-05-09T16:58:49.235Z,9.37
2023-05-09T17:02:12.799Z,9.20
2023-05-09T17:05:37.054Z,9.53
2023-05-09T17:09:00.748Z,9.53
2023-05-09T17:12:27.406Z,8.60
2023-05-09T17:15:52.501Z,9.03
2023-05-09T17:19:16.499Z,10.20
2023-05-09T17:22:40.845Z,9.33
2023-05-09T17:26:04.798Z,9.20
2023-05-09T17:29:30.989Z,9.27
2023-05-09T17:32:54.627Z,9.00
2023-05-09T17:36:18.451Z,10.70
2023-05-09T17:39:43.891Z,9.83
2023-05-09T17:43:07.585Z,9.33
2023-05-09T17:46:37.232Z,9.60
2023-05-09T17:50:01.045Z,10.00
2023-05-09T17:53:25.018Z,10.30
2023-05-09T17:56:51.131Z,10.53
2023-05-09T18:00:16.798Z,9.30
2023-05-09T18:03:44.570Z,9.93
2023-05-09T18:07:12.471Z,11.50
2023-05-09T18:10:36.113Z,10.50
2023-05-09T18:14:00.200Z,11.10
2023-05-09T18:17:23.839Z,10.07
2023-05-09T18:20:49.132Z,9.90
2023-05-09T18:24:13.925Z,11.20
2023-05-09T18:27:38.672Z,11.10
2023-05-09T18:31:02.449Z,10.47
2023-05-09T18:34:28.045Z,10.90
2023-05-09T18:37:53.378Z,9.70
2023-05-09T18:41:17.952Z,10.97
2023-05-09T18:44:41.526Z,10.93
2023-05-09T18:48:05.841Z,10.70
2023-05-09T18:51:31.033Z,10.20
2023-05-09T18:54:56.003Z,12.93
2023-05-09T18:58:21.109Z,9.87
2023-05-09T19:01:44.874Z,10.23
2023-05-09T19:05:10.707Z,10.80
2023-05-09T19:08:35.695Z,9.07
2023-05-09T19:12:05.413Z,10.80
2023-05-09T19:15:35.425Z,9.57
2023-05-09T19:18:59.680Z,9.63
2023-05-09T19:22:23.251Z,9.30
2023-05-09T19:25:46.791Z,9.30
2023-05-09T19:29:11.743Z,8.70
2023-05-09T19:32:35.357Z,10.20
2023-05-09T19:35:59.141Z,10.33
2023-05-09T19:39:23.862Z,8.00
2023-05-09T19:42:48.280Z,7.80
2023-05-09T19:46:13.287Z,6.00
2023-05-09T19:49:37.197Z,5.97
2023-05-09T19:53:01.046Z,7.07
2023-05-09T19:56:24.646Z,6.17
2023-05-09T19:59:48.195Z,5.43
2023-05-09T20:03:13.951Z,5.90
2023-05-09T20:06:38.140Z,5.60
2023-05-09T20:10:01.890Z,6.10
2023-05-09T20:13:26.748Z,5.37
2023-05-09T20:16:50.557Z,6.40
2023-05-09T20:20:15.854Z,5.90
2023-05-09T20:23:40.411Z,5.60
2023-05-09T20:27:12.789Z,5.70
2023-05-09T20:30:36.385Z,5.60
2023-05-09T20:34:00.353Z,5.00
2023-05-09T20:37:25.381Z,6.53
2023-05-09T20:40:49.277Z,5.73
2023-05-09T20:44:16.593Z,6.07
2023-05-09T20:47:40.585Z,6.10
2023-05-09T20:51:08.888Z,5.73
2023-05-09T20:54:43.116Z,6.17
2023-05-09T20:58:06.716Z,7.53
2023-05-09T21:01:31.876Z,6.33
2023-05-09T21:04:56.673Z,7.53
2023-05-09T21:08:20.399Z,6.83
2023-05-09T21:11:46.057Z,6.23
2023-05-09T21:15:10.644Z,5.90
2023-05-09T21:18:34.473Z,6.10
2023-05-09T21:22:02.306Z,5.83
2023-05-09T21:25:26.069Z,5.43
2023-05-09T21:28:51.790Z,5.60
2023-05-09T21:32:15.739Z,5.73
2023-05-09T21:35:40.511Z,5.70
2023-05-09T21:39:09.204Z,6.37
2023-05-09T21:42:38.897Z,5.83
2023-05-09T21:46:05.360Z,4.90
2023-05-09T21:49:32.248Z,5.70
2023-05-09T21:52:57.068Z,5.83
2023-05-09T21:56:24.131Z,5.50
2023-05-09T21:59:48.097Z,5.00
2023-05-09T22:03:13.509Z,5.97
2023-05-09T22:06:37.557Z,6.00
2023-05-09T22:10:01.687Z,7.23
2023-05-09T22:13:26.769Z,6.83
2023-05-09T22:16:50.598Z,6.47
2023-05-09T22:20:15.689Z,6.87
2023-05-09T22:23:39.482Z,7.17
2023-05-09T22:27:03.512Z,7.00
2023-05-09T22:30:27.362Z,7.87
2023-05-09T22:33:50.971Z,6.90
2023-05-09T22:37:16.366Z,6.40
2023-05-09T22:40:41.515Z,6.53
2023-05-09T22:44:05.374Z,5.70
2023-05-09T22:47:28.985Z,6.47
2023-05-09T22:51:27.953Z,6.77
2023-05-09T22:55:08.046Z,7.57
2023-05-09T22:58:31.661Z,6.23
2023-05-09T23:01:55.752Z,7.00
2023-05-09T23:05:19.397Z,6.93
2023-05-09T23:08:43.197Z,6.73
2023-05-09T23:12:10.548Z,6.60
2023-05-09T23:15:34.578Z,7.33
2023-05-09T23:18:58.106Z,6.53
2023-05-09T23:22:21.781Z,6.47
2023-05-09T23:25:45.518Z,7.00
2023-05-09T23:29:10.683Z,7.20
2023-05-09T23:32:34.348Z,8.00
2023-05-09T23:35:58.098Z,8.03
2023-05-09T23:39:21.706Z,7.20
2023-05-09T23:42:45.528Z,8.27
2023-05-09T23:46:10.789Z,8.03
2023-05-09T23:49:34.496Z,7.93
2023-05-09T23:52:58.038Z,7.10
2023-05-09T23:56:22.430Z,7.17
2023-05-09T23:59:46.550Z,7.57
